createdAt,value
2022-11-05T00:00:37.218Z,6.50
2022-11-05T00:03:23.586Z,6.50
2022-11-05T00:06:12.607Z,6.50
2022-11-05T00:08:59.317Z,6.50
2022-11-05T00:11:46.300Z,6.50
2022-11-05T00:14:32.495Z,6.50
2022-11-05T00:16:59.635Z,6.50
2022-11-05T00:19:26.548Z,6.50
2022-11-05T00:22:11.963Z,6.50
2022-11-05T00:24:57.550Z,6.50
2022-11-05T00:27:24.664Z,6.60
2022-11-05T00:29:52.043Z,6.50
2022-11-05T00:32:18.953Z,6.50
2022-11-05T00:34:45.845Z,6.50
2022-11-05T00:37:12.761Z,6.50
2022-11-05T00:39:39.674Z,6.50
2022-11-05T00:42:25.002Z,6.50
2022-11-05T00:45:04.297Z,6.60
2022-11-05T00:47:51.471Z,6.60
2022-11-05T00:50:21.110Z,6.60
2022-11-05T00:52:57.669Z,6.70
2022-11-05T00:55:45.938Z,6.70
2022-11-05T00:58:21.518Z,6.60
2022-11-05T01:00:57.446Z,6.60
2022-11-05T01:03:36.652Z,6.60
2022-11-05T01:06:13.619Z,6.50
2022-11-05T01:08:44.491Z,6.50
2022-11-05T01:11:33.259Z,6.50
2022-11-05T01:14:08.138Z,6.40
2022-11-05T01:16:35.722Z,6.40
2022-11-05T01:19:04.709Z,6.40
2022-11-05T01:21:32.065Z,6.30
2022-11-05T01:23:59.009Z,6.30
2022-11-05T01:26:26.659Z,6.30
2022-11-05T01:28:56.256Z,6.30
2022-11-05T01:31:24.807Z,6.30
2022-11-05T01:33:51.796Z,6.20
2022-11-05T01:36:18.840Z,6.20
2022-11-05T01:38:48.892Z,6.20
2022-11-05T01:41:15.786Z,6.20
2022-11-05T01:43:54.603Z,6.20
2022-11-05T01:46:36.065Z,6.20
2022-11-05T01:49:15.926Z,6.20
2022-11-05T01:51:44.995Z,6.20
2022-11-05T01:54:17.507Z,6.10
2022-11-05T01:56:51.478Z,6.10
2022-11-05T01:59:37.571Z,6.20
2022-11-05T02:02:06.823Z,6.20
2022-11-05T02:04:40.521Z,6.20
2022-11-05T02:07:09.642Z,6.30
2022-11-05T02:09:57.675Z,6.30
2022-11-05T02:12:25.040Z,6.50
2022-11-05T02:14:52.017Z,6.60
2022-11-05T02:17:31.182Z,6.60
2022-11-05T02:20:26.186Z,6.70
2022-11-05T02:23:20.816Z,6.70
2022-11-05T02:26:24.715Z,6.70
2022-11-05T02:29:30.162Z,6.70
2022-11-05T02:32:08.184Z,6.70
2022-11-05T02:34:57.648Z,6.80
2022-11-05T02:38:07.512Z,6.80
2022-11-05T02:40:53.800Z,6.80
2022-11-05T02:43:30.567Z,6.80
2022-11-05T02:46:08.699Z,6.80
2022-11-05T02:49:17.382Z,6.80
2022-11-05T02:51:53.212Z,6.80
2022-11-05T02:54:55.973Z,6.90
2022-11-05T02:57:22.965Z,6.90
2022-11-05T02:59:59.585Z,6.90
2022-11-05T03:02:26.699Z,6.90
2022-11-05T03:04:53.737Z,7.00
2022-11-05T03:07:56.307Z,7.00
2022-11-05T03:10:51.911Z,6.90
2022-11-05T03:13:46.360Z,6.90
2022-11-05T03:16:22.162Z,6.90
2022-11-05T03:19:08.962Z,6.90
2022-11-05T03:22:14.627Z,6.80
2022-11-05T03:24:58.303Z,6.80
2022-11-05T03:27:31.493Z,6.70
2022-11-05T03:30:06.545Z,6.70
2022-11-05T03:32:40.599Z,6.60
2022-11-05T03:35:36.494Z,6.50
2022-11-05T03:38:12.336Z,6.50
2022-11-05T03:40:44.380Z,6.50
2022-11-05T03:43:14.138Z,6.40
2022-11-05T03:45:49.653Z,6.40
2022-11-05T03:48:18.034Z,6.30
2022-11-05T03:51:24.060Z,6.30
2022-11-05T03:53:56.790Z,6.20
2022-11-05T03:56:57.951Z,6.30
2022-11-05T03:59:25.616Z,6.30
2022-11-05T04:01:55.008Z,6.30
2022-11-05T04:04:22.096Z,6.30
2022-11-05T04:07:07.906Z,6.30
2022-11-05T04:09:53.382Z,6.40
2022-11-05T04:12:38.765Z,6.40
2022-11-05T04:15:06.330Z,6.40
2022-11-05T04:17:33.241Z,6.40
2022-11-05T04:20:19.094Z,6.40
2022-11-05T04:23:04.628Z,6.40
2022-11-05T04:25:31.693Z,6.40
2022-11-05T04:28:02.699Z,6.40
2022-11-05T04:30:29.677Z,6.30
2022-11-05T04:33:08.627Z,6.30
2022-11-05T04:35:39.397Z,6.20
2022-11-05T04:38:12.957Z,6.20
2022-11-05T04:40:39.931Z,6.10
2022-11-05T04:43:14.717Z,6.10
2022-11-05T04:45:42.667Z,6.10
2022-11-05T04:48:09.753Z,6.00
2022-11-05T04:50:36.809Z,6.00
2022-11-05T04:53:03.831Z,6.00
2022-11-05T04:55:31.243Z,6.00
2022-11-05T04:57:58.192Z,5.90
2022-11-05T05:00:25.154Z,6.00
2022-11-05T05:02:52.152Z,6.00
2022-11-05T05:05:19.190Z,6.00
2022-11-05T05:07:46.134Z,5.90
2022-11-05T05:10:13.152Z,5.90
2022-11-05T05:12:40.242Z,5.90
2022-11-05T05:15:07.778Z,5.90
2022-11-05T05:17:34.722Z,5.90
2022-11-05T05:20:20.082Z,5.90
2022-11-05T05:23:05.458Z,5.90
2022-11-05T05:25:32.334Z,5.80
2022-11-05T05:27:59.404Z,5.90
2022-11-05T05:30:26.446Z,5.90
2022-11-05T05:32:53.343Z,5.90
2022-11-05T05:35:20.252Z,6.00
2022-11-05T05:37:47.210Z,6.00
2022-11-05T05:40:14.146Z,6.00
2022-11-05T05:42:43.424Z,5.90
2022-11-05T05:45:12.577Z,5.90
2022-11-05T05:47:39.469Z,5.90
2022-11-05T05:50:06.740Z,5.80
2022-11-05T05:52:33.672Z,5.80
2022-11-05T05:55:00.840Z,5.80
2022-11-05T05:57:27.717Z,5.80
2022-11-05T05:59:54.577Z,5.80
2022-11-05T06:02:22.920Z,5.80
2022-11-05T06:04:50.030Z,5.80
2022-11-05T06:07:16.980Z,5.80
2022-11-05T06:09:43.863Z,5.80
2022-11-05T06:12:10.755Z,5.80
2022-11-05T06:14:37.690Z,5.70
2022-11-05T06:17:04.607Z,5.70
2022-11-05T06:19:31.556Z,5.60
2022-11-05T06:21:58.493Z,5.60
2022-11-05T06:24:25.454Z,5.60
2022-11-05T06:26:52.399Z,5.50
2022-11-05T06:29:19.277Z,5.50
2022-11-05T06:31:46.173Z,5.50
2022-11-05T06:34:13.109Z,5.50
2022-11-05T06:36:40.303Z,5.50
2022-11-05T06:39:12.168Z,5.50
2022-11-05T06:42:03.915Z,5.60
2022-11-05T06:44:26.287Z,5.60
2022-11-05T06:46:53.195Z,5.60
2022-11-05T06:49:22.418Z,5.60
2022-11-05T06:51:49.322Z,5.60
2022-11-05T06:54:16.291Z,5.60
2022-11-05T06:56:43.358Z,5.60
2022-11-05T06:59:10.243Z,5.60
2022-11-05T07:01:37.660Z,5.70
2022-11-05T07:04:04.916Z,5.70
2022-11-05T07:06:36.876Z,5.80
2022-11-05T07:09:04.877Z,5.80
2022-11-05T07:11:31.831Z,5.90
2022-11-05T07:13:58.986Z,6.00
2022-11-05T07:16:25.889Z,6.00
2022-11-05T07:18:53.003Z,6.10
2022-11-05T07:21:19.896Z,6.20
2022-11-05T07:23:47.627Z,6.30
2022-11-05T07:26:14.732Z,6.40
2022-11-05T07:28:41.705Z,6.40
2022-11-05T07:31:08.802Z,6.50
2022-11-05T07:33:36.841Z,6.70
2022-11-05T07:36:04.108Z,6.80
2022-11-05T07:38:31.000Z,6.90
2022-11-05T07:41:00.396Z,7.10
2022-11-05T07:43:27.337Z,7.30
2022-11-05T07:45:54.349Z,7.40
2022-11-05T07:48:21.441Z,7.50
2022-11-05T07:50:53.140Z,7.70
2022-11-05T07:53:21.291Z,7.80
2022-11-05T07:55:48.334Z,7.90
2022-11-05T07:58:15.280Z,7.90
2022-11-05T08:00:42.482Z,7.90
2022-11-05T08:03:18.756Z,8.00
2022-11-05T08:05:47.666Z,8.00
2022-11-05T08:08:17.843Z,8.10
2022-11-05T08:10:45.082Z,8.20
2022-11-05T08:13:13.550Z,8.40
2022-11-05T08:15:40.996Z,8.70
2022-11-05T08:18:15.780Z,9.00
2022-11-05T08:20:44.244Z,9.00
2022-11-05T08:23:11.562Z,9.00
2022-11-05T08:25:39.792Z,8.80
2022-11-05T08:28:11.316Z,8.80
2022-11-05T08:30:38.625Z,8.80
2022-11-05T08:33:12.081Z,8.70
2022-11-05T08:35:41.618Z,8.60
2022-11-05T08:38:15.133Z,8.60
2022-11-05T08:40:44.579Z,8.50
2022-11-05T08:43:14.432Z,8.50
2022-11-05T08:45:42.424Z,8.50
2022-11-05T08:48:15.701Z,8.60
2022-11-05T08:50:44.337Z,8.60
2022-11-05T08:53:12.305Z,8.70
2022-11-05T08:55:40.016Z,8.70
2022-11-05T08:58:12.633Z,8.80
2022-11-05T09:00:40.080Z,8.80
2022-11-05T09:03:09.181Z,8.90
2022-11-05T09:05:39.160Z,8.90
2022-11-05T09:08:18.665Z,8.90
2022-11-05T09:10:47.365Z,8.90
2022-11-05T09:13:18.944Z,8.90
2022-11-05T09:15:48.750Z,8.90
2022-11-05T09:18:17.679Z,9.00
2022-11-05T09:20:45.352Z,9.00
2022-11-05T09:23:15.176Z,9.00
2022-11-05T09:25:44.463Z,9.00
2022-11-05T09:28:20.322Z,9.10
2022-11-05T09:30:52.572Z,9.10
2022-11-05T09:33:23.349Z,9.10
2022-11-05T09:35:50.622Z,9.10
2022-11-05T09:38:18.041Z,9.20
2022-11-05T09:40:54.868Z,9.20
2022-11-05T09:43:31.404Z,9.30
2022-11-05T09:46:04.069Z,9.40
2022-11-05T09:48:33.375Z,9.40
2022-11-05T09:51:00.469Z,9.40
2022-11-05T09:53:28.055Z,9.50
2022-11-05T09:55:59.086Z,9.60
2022-11-05T09:59:03.059Z,9.60
2022-11-05T10:01:35.973Z,9.70
2022-11-05T10:04:16.682Z,9.60
2022-11-05T10:06:52.357Z,9.60
2022-11-05T10:09:35.493Z,9.60
2022-11-05T10:12:20.627Z,9.60
2022-11-05T10:14:58.185Z,9.60
2022-11-05T10:17:27.668Z,9.60
2022-11-05T10:20:32.860Z,9.60
2022-11-05T10:23:10.651Z,9.60
2022-11-05T10:25:42.191Z,9.60
2022-11-05T10:28:22.444Z,9.70
2022-11-05T10:30:57.286Z,9.80
2022-11-05T10:33:33.916Z,9.90
2022-11-05T10:36:06.641Z,10.10
2022-11-05T10:38:33.959Z,10.30
2022-11-05T10:41:29.518Z,10.40
2022-11-05T10:44:31.013Z,10.50
2022-11-05T10:47:28.415Z,10.60
2022-11-05T10:50:09.444Z,10.60
2022-11-05T10:52:58.641Z,10.40
2022-11-05T10:55:34.619Z,10.40
2022-11-05T10:58:13.790Z,10.40
2022-11-05T11:00:43.188Z,10.40
2022-11-05T11:03:45.077Z,10.50
2022-11-05T11:06:31.458Z,10.60
2022-11-05T11:09:02.823Z,10.60
2022-11-05T11:11:38.420Z,10.50
2022-11-05T11:14:14.549Z,10.50
2022-11-05T11:16:48.003Z,10.40
2022-11-05T11:19:21.238Z,10.30
2022-11-05T11:22:09.225Z,10.30
2022-11-05T11:24:50.046Z,10.40
2022-11-05T11:27:29.433Z,10.40
2022-11-05T11:30:02.564Z,10.50
2022-11-05T11:32:37.686Z,10.60
2022-11-05T11:35:08.849Z,10.70
2022-11-05T11:37:42.034Z,10.70
2022-11-05T11:40:43.575Z,10.70
2022-11-05T11:43:37.346Z,10.60
2022-11-05T11:46:12.518Z,10.70
2022-11-05T11:48:47.658Z,10.80
2022-11-05T11:51:31.892Z,10.80
2022-11-05T11:54:01.465Z,10.80
2022-11-05T11:56:30.383Z,10.80
2022-11-05T11:59:05.736Z,10.80
2022-11-05T12:01:57.631Z,10.80
2022-11-05T12:05:08.009Z,10.90
2022-11-05T12:07:52.913Z,10.90
2022-11-05T12:10:50.840Z,11.00
2022-11-05T12:13:32.741Z,11.10
2022-11-05T12:16:30.318Z,11.10
2022-11-05T12:19:21.133Z,11.20
2022-11-05T12:22:14.132Z,11.30
2022-11-05T12:25:11.749Z,11.30
2022-11-05T12:28:03.393Z,11.40
2022-11-05T12:30:43.725Z,11.40
2022-11-05T12:33:27.574Z,11.40
2022-11-05T12:36:14.565Z,11.30
2022-11-05T12:39:24.502Z,11.40
2022-11-05T12:42:18.571Z,11.30
2022-11-05T12:45:19.647Z,11.30
2022-11-05T12:48:37.079Z,11.40
2022-11-05T12:51:34.899Z,11.50
2022-11-05T12:54:26.977Z,11.50
2022-11-05T12:56:59.274Z,11.50
2022-11-05T12:59:52.549Z,11.60
2022-11-05T13:02:47.892Z,11.60
2022-11-05T13:05:39.078Z,11.60
2022-11-05T13:08:19.062Z,11.60
2022-11-05T13:11:32.145Z,11.60
2022-11-05T13:14:33.503Z,11.60
2022-11-05T13:17:11.638Z,11.60
2022-11-05T13:20:03.891Z,11.60
2022-11-05T13:22:39.823Z,11.60
2022-11-05T13:25:18.899Z,11.60
2022-11-05T13:28:21.616Z,11.60
2022-11-05T13:30:53.572Z,11.60
2022-11-05T13:33:26.181Z,11.70
2022-11-05T13:36:26.469Z,11.70
2022-11-05T13:39:45.682Z,11.80
2022-11-05T13:42:36.763Z,11.80
2022-11-05T13:45:27.952Z,11.80
2022-11-05T13:48:16.402Z,11.90
2022-11-05T13:51:24.148Z,11.80
2022-11-05T13:54:35.730Z,11.90
2022-11-05T13:57:48.156Z,11.80
2022-11-05T14:00:27.378Z,11.80
2022-11-05T14:02:58.022Z,11.80
2022-11-05T14:06:04.990Z,11.70
2022-11-05T14:08:40.349Z,11.70
2022-11-05T14:11:50.304Z,11.70
2022-11-05T14:14:26.488Z,11.70
2022-11-05T14:17:16.908Z,11.70
2022-11-05T14:20:05.587Z,11.70
2022-11-05T14:22:32.406Z,11.70
2022-11-05T14:25:01.125Z,11.70
2022-11-05T14:27:37.083Z,11.70
2022-11-05T14:30:47.237Z,11.70
2022-11-05T14:33:32.200Z,11.70
2022-11-05T14:36:20.625Z,11.70
2022-11-05T14:38:54.530Z,11.70
2022-11-05T14:41:22.072Z,11.70
2022-11-05T14:43:57.616Z,11.70
2022-11-05T14:46:25.305Z,11.70
2022-11-05T14:49:05.134Z,11.70
2022-11-05T14:51:44.247Z,11.70
2022-11-05T14:54:35.760Z,11.70
2022-11-05T14:57:03.362Z,11.60
2022-11-05T14:59:32.779Z,11.60
2022-11-05T15:02:16.609Z,11.60
2022-11-05T15:04:45.650Z,11.60
2022-11-05T15:07:33.559Z,11.60
2022-11-05T15:10:13.445Z,11.50
2022-11-05T15:12:52.454Z,11.50
2022-11-05T15:15:28.274Z,11.50
2022-11-05T15:17:58.364Z,11.50
2022-11-05T15:20:42.662Z,11.50
2022-11-05T15:23:16.007Z,11.50
2022-11-05T15:26:10.083Z,11.50
2022-11-05T15:28:44.344Z,11.50
2022-11-05T15:31:13.985Z,11.40
2022-11-05T15:33:43.607Z,11.40
2022-11-05T15:36:26.683Z,11.40
2022-11-05T15:39:22.943Z,11.30
2022-11-05T15:41:41.070Z,11.30
2022-11-05T15:44:39.313Z,11.30
2022-11-05T15:47:23.475Z,11.30
2022-11-05T15:49:57.198Z,11.30
2022-11-05T15:52:34.713Z,11.20
2022-11-05T15:55:13.702Z,11.30
2022-11-05T15:58:07.264Z,11.20
2022-11-05T16:00:36.867Z,11.20
2022-11-05T16:03:32.120Z,11.20
2022-11-05T16:06:00.772Z,11.20
2022-11-05T16:08:29.879Z,11.10
2022-11-05T16:11:01.622Z,11.10
2022-11-05T16:13:39.429Z,11.10
2022-11-05T16:16:13.552Z,11.10
2022-11-05T16:18:41.461Z,11.00
2022-11-05T16:21:18.570Z,11.00
2022-11-05T16:23:48.562Z,11.00
2022-11-05T16:27:01.105Z,11.00
2022-11-05T16:29:57.235Z,11.00
2022-11-05T16:32:30.602Z,11.00
2022-11-05T16:35:01.846Z,11.00
2022-11-05T16:37:35.911Z,10.90
2022-11-05T16:40:03.880Z,10.90
2022-11-05T16:42:33.551Z,10.90
2022-11-05T16:45:00.450Z,10.80
2022-11-05T16:47:27.436Z,10.80
2022-11-05T16:49:54.319Z,10.80
2022-11-05T16:52:21.411Z,10.80
2022-11-05T16:54:48.385Z,10.80
2022-11-05T16:57:31.815Z,10.80
2022-11-05T17:00:00.381Z,10.80
2022-11-05T17:02:27.886Z,10.80
2022-11-05T17:04:54.905Z,10.80
2022-11-05T17:07:21.854Z,10.80
2022-11-05T17:09:48.803Z,10.70
2022-11-05T17:12:16.880Z,10.70
2022-11-05T17:14:43.781Z,10.70
2022-11-05T17:17:10.806Z,10.70
2022-11-05T17:19:42.237Z,10.60
2022-11-05T17:22:09.430Z,10.70
2022-11-05T17:24:36.397Z,10.70
2022-11-05T17:27:03.408Z,10.70
2022-11-05T17:29:30.328Z,10.70
2022-11-05T17:31:57.294Z,10.70
2022-11-05T17:34:24.331Z,10.70
2022-11-05T17:36:51.211Z,10.70
2022-11-05T17:39:18.090Z,10.70
2022-11-05T17:41:45.109Z,10.70
2022-11-05T17:44:12.252Z,10.70
2022-11-05T17:46:39.317Z,10.80
2022-11-05T17:49:06.199Z,10.80
2022-11-05T17:51:34.614Z,10.80
2022-11-05T17:54:01.586Z,10.80
2022-11-05T17:56:34.401Z,10.80
2022-11-05T17:59:03.631Z,10.80
2022-11-05T18:01:33.994Z,10.80
2022-11-05T18:04:07.180Z,10.80
2022-11-05T18:06:37.902Z,10.80
2022-11-05T18:09:07.563Z,10.90
2022-11-05T18:11:35.578Z,10.90
2022-11-05T18:14:02.888Z,10.90
2022-11-05T18:16:30.203Z,10.90
2022-11-05T18:18:57.254Z,10.90
2022-11-05T18:21:24.295Z,10.90
2022-11-05T18:23:51.282Z,10.90
2022-11-05T18:26:18.699Z,10.90
2022-11-05T18:28:46.043Z,10.90
2022-11-05T18:31:20.619Z,11.00
2022-11-05T18:33:51.504Z,11.00
2022-11-05T18:36:26.546Z,11.00
2022-11-05T18:38:53.793Z,11.00
2022-11-05T18:41:21.648Z,11.00
2022-11-05T18:43:48.826Z,11.00
2022-11-05T18:46:43.060Z,11.00
2022-11-05T18:49:03.516Z,11.00
2022-11-05T18:51:30.570Z,11.00
2022-11-05T18:53:57.536Z,10.90
2022-11-05T18:56:24.872Z,10.90
2022-11-05T18:59:14.694Z,10.80
2022-11-05T19:01:41.171Z,10.80
2022-11-05T19:04:08.403Z,10.80
2022-11-05T19:06:36.383Z,10.80
2022-11-05T19:09:05.016Z,10.90
2022-11-05T19:11:32.757Z,10.90
2022-11-05T19:13:59.950Z,10.90
2022-11-05T19:16:29.625Z,10.80
2022-11-05T19:19:02.584Z,10.90
2022-11-05T19:21:30.407Z,10.80
2022-11-05T19:24:01.340Z,10.90
2022-11-05T19:26:29.330Z,10.90
2022-11-05T19:29:00.098Z,10.90
2022-11-05T19:31:27.808Z,10.90
2022-11-05T19:33:55.442Z,10.90
2022-11-05T19:36:24.551Z,10.90
2022-11-05T19:39:00.740Z,10.90
2022-11-05T19:41:28.344Z,10.90
2022-11-05T19:43:57.994Z,10.90
2022-11-05T19:46:25.864Z,10.90
2022-11-05T19:48:53.086Z,10.90
2022-11-05T19:51:30.359Z,10.90
2022-11-05T19:54:00.497Z,10.90
2022-11-05T19:56:31.108Z,10.90
2022-11-05T19:58:59.344Z,10.80
2022-11-05T20:01:28.338Z,10.80
2022-11-05T20:03:57.938Z,10.90
2022-11-05T20:06:32.943Z,10.80
2022-11-05T20:11:54.899Z,10.80
2022-11-05T20:14:23.405Z,10.90
2022-11-05T20:16:50.891Z,10.90
2022-11-05T20:19:21.600Z,10.90
2022-11-05T20:21:49.074Z,10.90
2022-11-05T20:24:24.292Z,10.90
2022-11-05T20:26:56.006Z,10.90
2022-11-05T20:29:29.088Z,11.00
2022-11-05T20:32:02.228Z,11.00
2022-11-05T20:34:30.488Z,11.00
2022-11-05T20:36:57.761Z,11.00
2022-11-05T20:39:24.777Z,11.00
2022-11-05T20:41:52.898Z,11.00
2022-11-05T20:44:20.304Z,11.00
2022-11-05T20:46:47.229Z,11.00
2022-11-05T20:49:14.336Z,11.00
2022-11-05T20:51:41.589Z,11.00
2022-11-05T20:54:09.654Z,11.00
2022-11-05T20:56:36.677Z,11.00
2022-11-05T20:59:05.383Z,11.00
2022-11-05T21:01:34.163Z,11.00
2022-11-05T21:04:01.695Z,11.00
2022-11-05T21:06:29.030Z,11.00
2022-11-05T21:08:56.132Z,11.00
2022-11-05T21:11:23.501Z,10.90
2022-11-05T21:13:50.690Z,10.90
2022-11-05T21:16:20.542Z,10.90
2022-11-05T21:18:48.085Z,10.90
2022-11-05T21:21:20.564Z,10.90
2022-11-05T21:23:48.144Z,10.90
2022-11-05T21:26:18.092Z,10.90
2022-11-05T21:28:45.024Z,11.00
2022-11-05T21:31:12.303Z,10.90
2022-11-05T21:33:39.359Z,11.00
2022-11-05T21:36:12.679Z,10.90
2022-11-05T21:38:40.834Z,10.90
2022-11-05T21:41:10.444Z,10.90
2022-11-05T21:43:40.603Z,10.90
2022-11-05T21:46:07.658Z,11.00
2022-11-05T21:48:34.585Z,11.00
2022-11-05T21:51:19.776Z,10.90
2022-11-05T21:54:05.348Z,10.90
2022-11-05T21:56:51.520Z,10.90
2022-11-05T21:59:41.628Z,10.90
2022-11-05T22:02:11.325Z,10.80
2022-11-05T22:04:42.641Z,10.90
2022-11-05T22:07:12.547Z,10.80
2022-11-05T22:09:39.608Z,10.80
2022-11-05T22:12:07.398Z,10.80
2022-11-05T22:14:34.552Z,10.90
2022-11-05T22:17:01.993Z,10.90
2022-11-05T22:19:29.156Z,10.80
2022-11-05T22:21:56.069Z,10.80
2022-11-05T22:24:23.450Z,10.90
2022-11-05T22:26:51.412Z,10.90
2022-11-05T22:29:18.355Z,10.90
2022-11-05T22:31:45.387Z,10.90
2022-11-05T22:34:12.695Z,11.00
2022-11-05T22:36:39.646Z,10.90
2022-11-05T22:39:07.095Z,10.90
2022-11-05T22:41:34.057Z,10.90
2022-11-05T22:44:01.157Z,10.90
2022-11-05T22:46:28.066Z,10.90
2022-11-05T22:48:56.291Z,10.90
2022-11-05T22:51:29.504Z,10.90
2022-11-05T22:53:57.520Z,11.00
2022-11-05T22:56:31.691Z,11.00
2022-11-05T22:58:59.406Z,11.00
2022-11-05T23:01:27.202Z,11.00
2022-11-05T23:03:56.487Z,10.90
2022-11-05T23:06:45.581Z,11.00
2022-11-05T23:09:40.213Z,10.90
2022-11-05T23:12:19.898Z,10.90
2022-11-05T23:14:47.023Z,11.00
2022-11-05T23:17:32.456Z,11.00
2022-11-05T23:20:17.932Z,11.00
2022-11-05T23:23:03.355Z,11.00
2022-11-05T23:25:30.240Z,11.00
2022-11-05T23:27:57.407Z,11.00
2022-11-05T23:30:27.224Z,11.00
2022-11-05T23:32:54.395Z,11.00
2022-11-05T23:35:41.267Z,11.00
2022-11-05T23:38:27.278Z,11.00
2022-11-05T23:41:13.028Z,11.00
2022-11-05T23:43:58.856Z,11.00
2022-11-05T23:46:44.100Z,11.00
2022-11-05T23:49:10.997Z,11.00
2022-11-05T23:51:37.912Z,11.00
2022-11-05T23:54:04.984Z,11.10
2022-11-05T23:56:32.397Z,11.10
2022-11-05T23:58:59.394Z,11.10
